Phillips Ranch, California
Current Conditions -  °F | °C
As of 6:53 PM on Tuesday 25 Nov 2014 (Local Time) from KCNO Reporting Station
Clear Clear  
Wind Chill: 65°   Ceiling: Unl
Heat Index: 65°   Visibility: 10mi
Dew Point: 19°   Wind: 0mph
Humidity: 17%   Direction: NA
Pressure: 30.3"   Gusts: NA
Location:  34.0419°N, 117.754°W
Report Text: KCNO 260253Z 00000KT 10SM CLR 18/M07 A3030 RMK AO2 SLP258 T01831072 53009 $
Loading
Personal Weather Stations






























Interactive Weather Map New forecast layout! Learn more

10-Day Weather Forecast

Advertisements
Track Severe Weather on mobile